Time;durP1;ratioP1;P1;durP2;ratioP2;P2;SDS_P1;SDS_P2;PMS_P1;PMS_P2;Temp;Humidity;BMP_temperature;BMP_pressure;BME280_temperature;BME280_humidity;BME280_pressure;Samples;Min_cycle;Max_cycle;Signal;HPM_P1;HPM_P2
2021/10/13 00:01:53;;;;;;;123.22;74.22;;;;;;;11.53;69.67;99670.56;1720320;82;21072;-57
2021/10/13 00:04:19;;;;;;;126.25;74.22;;;;;;;11.52;69.70;99672.41;1720079;82;21036;-57
2021/10/13 00:06:46;;;;;;;127.60;74.50;;;;;;;11.51;69.76;99674.83;1723322;82;21061;-57
2021/10/13 00:09:13;;;;;;;118.85;71.35;;;;;;;11.50;69.89;99673.19;1717907;82;21007;-57
2021/10/13 00:11:39;;;;;;;120.82;68.87;;;;;;;11.51;69.87;99659.23;1684179;83;20978;-57
2021/10/13 00:14:06;;;;;;;122.02;70.03;;;;;;;11.49;69.88;99658.14;1720331;82;21079;-58
2021/10/13 00:16:35;;;;;;;;;;;;;;;11.49;69.95;99658.67;1719283;82;20997;-57
2021/10/13 00:19:02;;;;;;;117.60;67.22;;;;;;;11.48;69.98;99660.52;1687718;84;21245;-57
2021/10/13 00:21:29;;;;;;;119.65;69.32;;;;;;;11.45;69.96;99654.30;1718639;82;20928;-57
2021/10/13 00:23:55;;;;;;;118.40;69.97;;;;;;;11.43;69.98;99655.08;1719725;82;20992;-55
2021/10/13 00:26:22;;;;;;;119.72;67.97;;;;;;;11.42;70.22;99660.16;1682410;84;21505;-56
2021/10/13 00:28:49;;;;;;;108.35;64.25;;;;;;;11.42;70.43;99660.16;1719825;82;21552;-56
2021/10/13 00:31:15;;;;;;;117.55;67.17;;;;;;;11.43;70.60;99663.67;1683498;84;21157;-57
2021/10/13 00:33:42;;;;;;;120.47;71.07;;;;;;;11.44;70.76;99671.48;1673344;85;20952;-56
2021/10/13 00:36:08;;;;;;;121.33;70.10;;;;;;;11.44;70.92;99670.14;1678376;85;21090;-57
2021/10/13 00:38:36;;;;;;;117.40;69.40;;;;;;;11.46;71.08;99676.06;1716490;82;21123;-56
2021/10/13 00:41:02;;;;;;;108.70;64.55;;;;;;;11.47;71.17;99682.23;1720111;82;20936;-57
2021/10/13 00:43:29;;;;;;;100.02;61.58;;;;;;;11.48;71.15;99679.31;1718798;82;21815;-56
2021/10/13 00:45:55;;;;;;;102.47;61.00;;;;;;;11.46;71.15;99668.02;1719751;82;21553;-56
2021/10/13 00:48:22;;;;;;;98.47;59.45;;;;;;;11.48;71.14;99663.75;1717448;82;20939;-55
2021/10/13 00:50:48;;;;;;;102.27;59.85;;;;;;;11.47;71.07;99655.40;1720296;82;20889;-56
2021/10/13 00:53:15;;;;;;;100.42;54.65;;;;;;;11.46;70.96;99657.28;1684223;83;21038;-57
2021/10/13 00:55:42;;;;;;;94.40;57.95;;;;;;;11.45;69.94;99659.67;1668562;85;21106;-56
2021/10/13 00:58:08;;;;;;;103.22;63.25;;;;;;;11.45;69.54;99661.55;1665957;85;20984;-56
2021/10/13 01:00:35;;;;;;;107.25;63.38;;;;;;;11.41;70.12;99662.57;1665154;85;21041;-56
2021/10/13 01:03:25;;;;;;;107.87;64.47;;;;;;;11.39;70.25;99666.84;1645800;85;20976;-56
2021/10/13 01:06:06;;;;;;;108.25;61.90;;;;;;;11.35;70.23;99664.34;1665169;85;21593;-56
2021/10/13 01:09:04;;;;;;;108.45;60.70;;;;;;;11.31;70.21;99660.50;1665245;85;21136;-57
2021/10/13 01:11:58;;;;;;;98.85;59.10;;;;;;;11.30;70.16;99654.03;1661061;84;20908;-57
2021/10/13 01:15:02;;;;;;;93.75;56.23;;;;;;;11.31;70.02;99655.14;1716225;82;20976;-57
2021/10/13 01:17:41;;;;;;;98.85;56.33;;;;;;;11.31;69.98;99655.14;1722416;82;20939;-57
2021/10/13 01:20:43;;;;;;;103.70;56.92;;;;;;;11.28;69.50;99654.78;1722351;82;21071;-56
2021/10/13 01:23:33;;;;;;;98.30;56.95;;;;;;;11.24;69.20;99654.46;1719497;82;21546;-57
2021/10/13 01:26:28;;;;;;;101.92;59.10;;;;;;;11.21;69.02;99641.53;1685202;84;21038;-57
2021/10/13 01:28:59;;;;;;;100.95;58.20;;;;;;;11.15;69.13;99637.13;1679344;85;20985;-56
2021/10/13 01:31:37;;;;;;;91.25;55.88;;;;;;;11.13;69.19;99640.56;1667298;84;20949;-56
2021/10/13 01:34:25;;;;;;;90.50;54.20;;;;;;;11.10;69.27;99641.88;1661288;85;21108;-61
2021/10/13 01:36:59;;;;;;;91.30;52.05;;;;;;;11.08;69.21;99639.94;1720687;82;21482;-57
2021/10/13 01:39:25;;;;;;;86.70;51.92;;;;;;;11.04;69.21;99632.08;1721057;82;21027;-57
2021/10/13 01:41:53;;;;;;;84.83;51.77;;;;;;;11.03;69.24;99631.81;1688780;84;21004;-57
2021/10/13 01:44:20;;;;;;;89.17;52.83;;;;;;;11.01;69.38;99634.73;1686480;84;21099;-57
2021/10/13 01:46:47;;;;;;;91.78;54.90;;;;;;;11.00;69.52;99636.31;1675660;85;21018;-57
2021/10/13 01:49:15;;;;;;;99.20;56.45;;;;;;;11.01;69.61;99641.44;1673842;85;21165;-57
2021/10/13 01:51:42;;;;;;;90.15;53.90;;;;;;;11.04;69.79;99644.98;1664502;85;20960;-57
2021/10/13 01:54:09;;;;;;;97.30;55.90;;;;;;;11.09;69.79;99644.80;1664629;85;21012;-56
2021/10/13 01:56:38;;;;;;;95.62;54.53;;;;;;;11.12;69.80;99648.34;1666233;85;21613;-56
2021/10/13 01:59:08;;;;;;;88.75;53.55;;;;;;;11.11;69.99;99642.68;1664843;85;20944;-57
2021/10/13 02:01:37;;;;;;;97.47;58.08;;;;;;;11.12;70.47;99653.17;1668345;85;21621;-58
2021/10/13 02:04:07;;;;;;;94.17;56.13;;;;;;;11.15;70.77;99650.00;1717545;82;21023;-56
2021/10/13 02:06:34;;;;;;;92.20;55.10;;;;;;;11.15;70.58;99651.34;1718684;82;21046;-56
2021/10/13 02:09:01;;;;;;;90.62;54.70;;;;;;;11.13;70.64;99650.78;1721186;82;21407;-57
2021/10/13 02:11:30;;;;;;;89.67;53.38;;;;;;;11.12;70.71;99655.05;1719964;82;20980;-56
2021/10/13 02:14:08;;;;;;;96.15;54.33;;;;;;;11.13;70.96;99651.29;1723356;82;21854;-57
2021/10/13 02:16:34;;;;;;;93.92;54.60;;;;;;;11.13;71.19;99653.97;1719415;82;21541;-58
2021/10/13 02:19:06;;;;;;;94.45;55.67;;;;;;;11.16;71.40;99662.88;1718452;82;20968;-56
2021/10/13 02:21:35;;;;;;;87.17;52.33;;;;;;;11.18;71.55;99661.59;1683139;84;21042;-55
2021/10/13 02:24:04;;;;;;;90.92;53.35;;;;;;;11.21;71.44;99671.04;1683026;84;36069;-56
2021/10/13 02:26:43;;;;;;;89.72;51.50;;;;;;;11.22;71.10;99664.63;1685883;84;21136;-57
2021/10/13 02:29:14;;;;;;;83.45;48.87;;;;;;;11.20;70.66;99674.27;1667121;85;21036;-56
2021/10/13 02:31:41;;;;;;;80.10;50.08;;;;;;;11.16;70.45;99670.92;1718063;82;20948;-56
2021/10/13 02:34:08;;;;;;;79.35;51.02;;;;;;;11.12;70.34;99675.16;1718516;82;20964;-56
2021/10/13 02:36:34;;;;;;;96.95;53.42;;;;;;;11.08;70.22;99680.71;1719385;81;21015;-56
2021/10/13 02:39:01;;;;;;;85.05;52.25;;;;;;;11.05;70.24;99680.66;1719329;82;21159;-56
2021/10/13 02:41:28;;;;;;;83.45;52.08;;;;;;;11.05;70.70;99684.14;1683596;84;20947;-57
2021/10/13 02:43:55;;;;;;;87.00;52.58;;;;;;;11.08;70.87;99688.76;1679417;84;21003;-56
2021/10/13 02:46:42;;;;;;;87.15;53.68;;;;;;;11.06;70.78;99682.30;1719687;82;20965;-56
2021/10/13 02:49:20;;;;;;;82.05;50.03;;;;;;;11.02;70.88;99684.62;1718161;82;20969;-55
2021/10/13 02:52:38;;;;;;;85.47;52.33;;;;;;;11.01;71.11;99691.05;1721820;82;21214;-56
2021/10/13 02:55:14;;;;;;;88.10;51.95;;;;;;;11.04;71.04;99689.74;1720552;82;20885;-56
2021/10/13 02:57:55;;;;;;;79.87;51.45;;;;;;;11.08;71.20;99685.54;1699983;82;20861;-57
2021/10/13 03:00:22;;;;;;;82.15;50.90;;;;;;;11.13;71.01;99683.48;1723824;82;21015;-57
2021/10/13 03:02:59;;;;;;;81.90;51.23;;;;;;;11.12;70.83;99689.92;1720158;82;20975;-57
2021/10/13 03:05:27;;;;;;;83.78;50.92;;;;;;;11.11;71.13;99683.72;1705932;82;21557;-57
2021/10/13 03:07:57;;;;;;;82.00;51.83;;;;;;;11.11;71.40;99690.42;1717507;82;21032;-58
2021/10/13 03:10:25;;;;;;;78.60;49.95;;;;;;;11.13;71.60;99697.73;1717548;82;21629;-58
2021/10/13 03:12:53;;;;;;;83.05;50.15;;;;;;;11.16;71.65;99703.13;1683133;84;21394;-58
2021/10/13 03:15:20;;;;;;;;;;;;;;;11.18;71.53;99709.08;1683423;84;21111;-57
2021/10/13 03:17:50;;;;;;;78.12;49.67;;;;;;;11.19;71.24;99704.02;1679217;84;21193;-57
2021/10/13 03:20:17;;;;;;;82.67;49.05;;;;;;;11.16;70.97;99695.91;1680461;84;21035;-56
2021/10/13 03:22:43;;;;;;;84.55;49.35;;;;;;;11.15;70.87;99696.95;1683117;84;21174;-56
2021/10/13 03:25:10;;;;;;;88.20;53.15;;;;;;;11.15;70.94;99695.61;1680141;84;20991;-56
2021/10/13 03:27:37;;;;;;;80.15;51.53;;;;;;;11.16;70.93;99689.70;1678812;84;21079;-57
2021/10/13 03:30:06;;;;;;;80.38;48.95;;;;;;;11.14;70.62;99687.27;1681064;84;21754;-57
2021/10/13 03:32:32;;;;;;;78.78;47.90;;;;;;;11.11;70.62;99687.74;1697969;82;21040;-56
2021/10/13 03:34:59;;;;;;;81.57;49.75;;;;;;;11.12;70.64;99689.92;1717878;82;21043;-56
2021/10/13 03:37:25;;;;;;;78.72;48.05;;;;;;;11.13;70.51;99687.50;1684460;84;20987;-56
2021/10/13 03:39:53;;;;;;;78.92;49.50;;;;;;;11.09;70.50;99683.16;1667303;85;21082;-56
2021/10/13 03:42:20;;;;;;;77.93;47.70;;;;;;;11.09;70.31;99681.02;1664713;85;21145;-57
2021/10/13 03:44:46;;;;;;;86.15;49.85;;;;;;;11.04;70.17;99682.53;1665211;85;21113;-57
2021/10/13 03:47:13;;;;;;;85.22;48.48;;;;;;;11.03;70.13;99682.77;1716290;82;20964;-57
2021/10/13 03:49:39;;;;;;;80.22;47.43;;;;;;;11.03;70.21;99681.43;1715069;82;20952;-57
2021/10/13 03:52:06;;;;;;;76.92;46.15;;;;;;;11.04;70.26;99686.55;1686168;84;21046;-57
2021/10/13 03:54:32;;;;;;;74.45;46.25;;;;;;;11.06;70.35;99684.97;1674998;85;21998;-57
2021/10/13 03:56:59;;;;;;;72.27;46.50;;;;;;;11.07;70.41;99691.14;1672244;85;21164;-57
2021/10/13 03:59:25;;;;;;;81.10;46.75;;;;;;;11.05;70.28;99692.72;1674620;85;21048;-56
2021/10/13 04:01:52;;;;;;;78.42;45.95;;;;;;;11.02;70.12;99685.95;1675499;85;20993;-57
2021/10/13 04:04:18;;;;;;;80.85;48.58;;;;;;;11.01;69.96;99691.56;1687575;84;21525;-58
2021/10/13 04:06:45;;;;;;;78.33;47.75;;;;;;;10.97;69.98;99687.21;1675653;83;21121;-57
2021/10/13 04:09:13;;;;;;;76.97;46.90;;;;;;;10.95;70.10;99679.91;1719895;82;21047;-57
2021/10/13 04:11:41;;;;;;;74.27;46.23;;;;;;;10.94;70.06;99672.11;1683439;84;20928;-57
2021/10/13 04:14:08;;;;;;;78.72;47.43;;;;;;;10.93;70.23;99679.34;1673744;85;21787;-56
2021/10/13 04:16:35;;;;;;;75.42;48.42;;;;;;;10.95;70.40;99685.27;1674214;85;20980;-58
2021/10/13 04:19:01;;;;;;;78.28;48.83;;;;;;;10.96;70.56;99674.04;1676965;85;21194;-57
2021/10/13 04:21:28;;;;;;;80.50;48.63;;;;;;;10.98;70.48;99674.61;1666413;85;21498;-57
2021/10/13 04:23:55;;;;;;;77.37;47.60;;;;;;;10.98;70.41;99674.10;1667333;85;20999;-57
2021/10/13 04:26:21;;;;;;;81.20;48.83;;;;;;;10.96;70.31;99676.72;1717569;82;21479;-57
2021/10/13 04:28:48;;;;;;;70.90;45.60;;;;;;;10.96;70.32;99676.19;1717529;82;21008;-58
2021/10/13 04:31:15;;;;;;;76.47;47.65;;;;;;;10.96;70.30;99674.04;1719468;82;21156;-57
2021/10/13 04:33:42;;;;;;;77.72;48.65;;;;;;;10.97;70.36;99681.05;1711621;83;20975;-57
2021/10/13 04:36:09;;;;;;;80.12;47.55;;;;;;;10.95;70.29;99687.15;1674301;84;21048;-56
2021/10/13 04:38:36;;;;;;;72.40;48.52;;;;;;;10.91;70.16;99689.50;1711762;83;20972;-56
2021/10/13 04:41:03;;;;;;;77.55;47.00;;;;;;;10.90;70.22;99696.45;1676829;84;21064;-56
2021/10/13 04:43:30;;;;;;;73.78;45.95;;;;;;;10.89;70.35;99703.66;1714010;83;21236;-57
2021/10/13 04:45:56;;;;;;;73.60;47.45;;;;;;;10.89;70.44;99704.19;1709408;83;21123;-56
2021/10/13 04:48:23;;;;;;;75.47;45.58;;;;;;;10.87;70.47;99704.43;1675682;84;20948;-57
2021/10/13 04:50:49;;;;;;;72.03;44.38;;;;;;;10.85;70.51;99701.16;1711668;82;21029;-56
2021/10/13 04:53:16;;;;;;;75.55;45.85;;;;;;;10.85;70.46;99691.27;1712334;83;21565;-56
2021/10/13 04:55:44;;;;;;;70.83;44.27;;;;;;;10.84;70.34;99686.13;1710433;83;21075;-56
2021/10/13 04:58:11;;;;;;;68.02;44.35;;;;;;;10.80;70.05;99685.78;1675041;84;20960;-57
2021/10/13 05:00:37;;;;;;;70.70;41.50;;;;;;;10.77;69.87;99686.25;1710917;83;21063;-58
2021/10/13 05:03:04;;;;;;;78.70;44.08;;;;;;;10.77;69.79;99692.15;1712439;83;20984;-56
2021/10/13 05:05:31;;;;;;;72.08;44.23;;;;;;;10.76;69.63;99692.69;1711993;83;21648;-57
2021/10/13 05:07:57;;;;;;;70.22;42.95;;;;;;;10.74;69.49;99693.97;1711301;83;21192;-57
2021/10/13 05:10:24;;;;;;;71.72;43.40;;;;;;;10.69;69.50;99692.80;1675301;84;21039;-57
2021/10/13 05:12:52;;;;;;;65.17;41.70;;;;;;;10.68;69.48;99691.16;1712122;83;21027;-57
2021/10/13 05:15:19;;;;;;;73.40;45.95;;;;;;;10.67;69.38;99688.20;1675635;84;21070;-57
2021/10/13 05:17:47;;;;;;;73.00;45.17;;;;;;;10.65;69.62;99684.93;1664756;85;21561;-57
2021/10/13 05:20:13;;;;;;;66.00;42.80;;;;;;;10.65;69.86;99684.12;1657140;85;21106;-57
2021/10/13 05:22:40;;;;;;;71.87;43.25;;;;;;;10.66;70.15;99691.13;1657171;85;20921;-58
2021/10/13 05:25:07;;;;;;;73.75;44.10;;;;;;;10.67;70.17;99693.57;1658392;85;21028;-58
2021/10/13 05:27:34;;;;;;;71.92;44.27;;;;;;;10.69;70.05;99692.80;1658306;85;21040;-58
2021/10/13 05:30:01;;;;;;;85.45;44.88;;;;;;;10.69;70.02;99694.67;1658558;85;21049;-57
2021/10/13 05:32:28;;;;;;;87.72;47.67;;;;;;;10.69;69.95;99687.44;1664868;85;21129;-57
2021/10/13 05:34:54;;;;;;;81.97;48.80;;;;;;;10.67;69.67;99695.41;1719878;82;20996;-57
2021/10/13 05:37:21;;;;;;;84.30;48.75;;;;;;;10.63;69.67;99696.42;1716366;82;21007;-58
2021/10/13 05:39:47;;;;;;;85.22;48.45;;;;;;;10.61;69.64;99696.36;1684000;84;21529;-58
2021/10/13 05:42:14;;;;;;;79.32;46.40;;;;;;;10.59;69.57;99699.81;1675484;85;21597;-58
2021/10/13 05:44:40;;;;;;;80.87;46.68;;;;;;;10.56;69.71;99699.75;1672842;85;21828;-58
2021/10/13 05:47:07;;;;;;;79.37;47.00;;;;;;;10.55;69.87;99700.78;1668609;85;21592;-57
2021/10/13 05:49:33;;;;;;;78.57;45.17;;;;;;;10.55;69.70;99708.83;1665027;85;21489;-58
2021/10/13 05:52:00;;;;;;;80.22;46.92;;;;;;;10.51;69.65;99709.83;1716532;82;20976;-58
2021/10/13 05:54:26;;;;;;;75.12;45.98;;;;;;;10.49;69.71;99705.75;1718093;82;21466;-58
2021/10/13 05:56:53;;;;;;;72.22;43.73;;;;;;;10.47;69.73;99700.62;1685141;84;21776;-57
2021/10/13 05:59:19;;;;;;;73.05;43.52;;;;;;;10.43;69.86;99703.47;1673869;85;21624;-58
2021/10/13 06:01:46;;;;;;;77.30;44.65;;;;;;;10.44;70.06;99702.97;1677306;85;20987;-57
2021/10/13 06:04:12;;;;;;;73.55;44.53;;;;;;;10.43;70.21;99698.65;1675561;85;21545;-57
2021/10/13 06:06:39;;;;;;;69.40;42.05;;;;;;;10.44;70.37;99703.77;1673961;85;21043;-57
2021/10/13 06:09:06;;;;;;;73.30;43.28;;;;;;;10.44;70.30;99700.29;1675662;85;21141;-57
2021/10/13 06:11:33;;;;;;;71.80;43.80;;;;;;;10.44;70.14;99701.63;1671148;85;20866;-57
2021/10/13 06:13:59;;;;;;;76.10;41.73;;;;;;;10.41;70.26;99704.23;1719229;82;20948;-56
2021/10/13 06:16:26;;;;;;;70.90;43.00;;;;;;;10.40;70.27;99707.96;1682490;84;21033;-57
2021/10/13 06:18:53;;;;;;;74.37;43.10;;;;;;;10.40;70.37;99703.94;1666467;85;21460;-57
2021/10/13 06:21:20;;;;;;;69.40;43.05;;;;;;;10.42;70.39;99715.23;1718466;82;21328;-59
2021/10/13 06:23:47;;;;;;;67.47;41.98;;;;;;;10.44;70.51;99716.36;1721220;82;20964;-58
2021/10/13 06:26:14;;;;;;;86.17;46.90;;;;;;;10.45;70.52;99721.49;1686172;84;21485;-59
2021/10/13 06:28:41;;;;;;;79.65;45.28;;;;;;;10.47;70.51;99725.28;1669648;84;21646;-58
2021/10/13 06:31:07;;;;;;;71.67;42.98;;;;;;;10.49;70.57;99721.83;1671160;85;21079;-57
2021/10/13 06:33:36;;;;;;;64.67;41.92;;;;;;;10.49;70.47;99723.97;1672218;85;21931;-59
2021/10/13 06:36:05;;;;;;;69.27;41.50;;;;;;;10.49;70.54;99728.53;1669568;85;21028;-56
2021/10/13 06:38:32;;;;;;;69.20;41.20;;;;;;;10.48;70.57;99725.04;1665784;85;20889;-57
2021/10/13 06:40:59;;;;;;;70.17;42.15;;;;;;;10.50;70.45;99722.93;1716813;82;21555;-58
2021/10/13 06:43:26;;;;;;;68.55;42.88;;;;;;;10.46;70.33;99728.99;1718155;82;21039;-58
2021/10/13 06:45:53;;;;;;;68.85;41.60;;;;;;;10.41;70.36;99734.22;1720729;82;21133;-56
2021/10/13 06:48:21;;;;;;;66.20;42.08;;;;;;;10.38;70.49;99733.34;1718632;82;21003;-57
2021/10/13 06:50:50;;;;;;;67.58;41.98;;;;;;;10.37;70.63;99730.40;1717906;82;20965;-58
2021/10/13 06:53:18;;;;;;;67.42;41.77;;;;;;;10.34;70.86;99726.31;1717566;82;20925;-59
2021/10/13 06:55:46;;;;;;;64.17;40.60;;;;;;;10.33;71.01;99724.16;1722431;82;21035;-60
2021/10/13 06:58:13;;;;;;;66.67;41.53;;;;;;;10.36;70.96;99732.77;1721656;82;21050;-58
2021/10/13 07:00:40;;;;;;;66.60;40.85;;;;;;;10.36;70.93;99735.45;1719873;82;20992;-63
2021/10/13 07:03:07;;;;;;;69.87;42.48;;;;;;;10.35;71.09;99725.27;1719767;82;21010;-57
2021/10/13 07:08:16;;;;;;;62.83;41.65;;;;;;;10.42;71.08;99723.27;1806031;78;22715;-60
2021/10/13 07:10:43;;;;;;;74.12;40.48;;;;;;;10.37;71.13;99719.14;1768443;80;20944;-59
2021/10/13 07:13:09;;;;;;;61.83;39.05;;;;;;;10.37;71.00;99716.47;1765194;80;21863;-59
2021/10/13 07:15:36;;;;;;;60.45;37.88;;;;;;;10.35;70.89;99715.89;1759385;80;21417;-60
2021/10/13 07:18:04;;;;;;;54.90;38.10;;;;;;;10.33;70.77;99715.27;1760714;80;20930;-56
2021/10/13 07:20:31;;;;;;;53.60;35.73;;;;;;;10.28;70.63;99715.16;1765780;78;21522;-57
2021/10/13 07:22:57;;;;;;;56.15;35.00;;;;;;;10.22;70.73;99720.08;1760720;80;21015;-56
2021/10/13 07:25:26;;;;;;;51.48;34.13;;;;;;;10.18;70.77;99727.23;1762031;79;21942;-57
2021/10/13 07:27:53;;;;;;;56.88;35.15;;;;;;;10.16;70.75;99728.00;1760324;80;20998;-57
2021/10/13 07:30:23;;;;;;;57.75;34.40;;;;;;;10.10;70.70;99724.08;1759643;80;20970;-56
2021/10/13 07:32:48;;;;;;;52.70;32.73;;;;;;;10.00;70.88;99721.45;1759244;80;21017;-56
2021/10/13 07:35:14;;;;;;;56.33;35.23;;;;;;;9.96;71.04;99729.64;1764543;80;21386;-58
2021/10/13 07:37:41;;;;;;;56.68;33.65;;;;;;;9.97;71.09;99727.80;1760450;80;21169;-56
2021/10/13 07:40:09;;;;;;;63.33;35.50;;;;;;;9.91;71.05;99730.88;1763115;80;21469;-57
2021/10/13 07:42:36;;;;;;;54.53;34.00;;;;;;;9.89;71.42;99730.80;1763192;80;21011;-56
2021/10/13 07:45:03;;;;;;;52.78;34.30;;;;;;;9.91;71.62;99730.88;1761195;80;21494;-56
2021/10/13 07:47:30;;;;;;;55.28;33.23;;;;;;;9.97;71.72;99734.50;1763678;80;21549;-57
2021/10/13 07:49:56;;;;;;;53.48;34.23;;;;;;;10.00;71.63;99726.81;1761666;80;21118;-57
2021/10/13 07:52:23;;;;;;;57.48;34.23;;;;;;;10.00;71.49;99726.00;1764966;80;20959;-57
2021/10/13 07:54:49;;;;;;;47.25;32.55;;;;;;;10.00;71.50;99728.15;1761081;80;20978;-56
2021/10/13 07:57:16;;;;;;;54.30;32.85;;;;;;;10.03;71.48;99731.43;1758919;80;20939;-58
2021/10/13 07:59:42;;;;;;;51.90;32.17;;;;;;;10.02;71.47;99735.95;1760517;80;20950;-57
2021/10/13 08:02:09;;;;;;;48.40;29.12;;;;;;;9.99;71.48;99737.75;1760298;80;21157;-57
2021/10/13 08:04:35;;;;;;;56.83;30.95;;;;;;;9.98;71.41;99734.27;1759404;80;21569;-57
2021/10/13 08:07:02;;;;;;;46.37;29.67;;;;;;;9.97;71.44;99727.27;1756608;80;20947;-57
2021/10/13 08:09:29;;;;;;;49.38;30.40;;;;;;;9.99;71.52;99723.02;1752845;81;20970;-55
2021/10/13 08:11:55;;;;;;;50.40;31.10;;;;;;;10.00;71.45;99721.98;1748133;81;21426;-55
2021/10/13 08:14:22;;;;;;;47.73;28.02;;;;;;;9.95;71.55;99723.18;1756892;81;21802;-56
2021/10/13 08:16:49;;;;;;;47.13;28.85;;;;;;;9.88;71.59;99714.44;1752716;81;21480;-56
2021/10/13 08:19:15;;;;;;;36.10;25.50;;;;;;;9.84;71.65;99721.31;1749853;81;22001;-57
2021/10/13 08:21:41;;;;;;;39.25;25.95;;;;;;;9.81;71.62;99714.02;1749108;81;20908;-61
2021/10/13 08:24:08;;;;;;;40.28;24.95;;;;;;;9.79;71.68;99710.77;1749598;80;21560;-59
2021/10/13 08:26:35;;;;;;;44.55;26.90;;;;;;;9.81;71.84;99708.66;1753505;81;21116;-57
2021/10/13 08:29:02;;;;;;;44.15;27.50;;;;;;;9.83;71.81;99724.49;1750357;81;21588;-57
2021/10/13 08:31:29;;;;;;;41.85;26.82;;;;;;;9.79;71.75;99725.48;1752413;81;21517;-56
2021/10/13 08:33:56;;;;;;;41.77;24.70;;;;;;;9.80;72.00;99722.28;1748070;81;20920;-56
2021/10/13 08:36:22;;;;;;;39.92;26.75;;;;;;;9.84;71.86;99728.01;1752329;81;21013;-57
2021/10/13 08:38:49;;;;;;;48.02;27.10;;;;;;;9.85;71.96;99728.28;1751004;81;21770;-57
2021/10/13 08:41:15;;;;;;;37.90;27.37;;;;;;;9.88;72.01;99740.70;1748540;81;21304;-57
2021/10/13 08:43:45;;;;;;;37.67;25.97;;;;;;;9.91;71.91;99746.10;1749909;81;20955;-58
2021/10/13 08:46:12;;;;;;;41.70;25.17;;;;;;;9.89;71.74;99750.34;1751573;81;20983;-57
2021/10/13 08:48:39;;;;;;;37.90;25.20;;;;;;;9.87;71.71;99748.96;1749568;81;21146;-55
2021/10/13 08:51:06;;;;;;;41.55;26.82;;;;;;;9.86;71.70;99741.97;1747289;81;21163;-58
2021/10/13 08:53:33;;;;;;;42.53;26.20;;;;;;;9.85;71.68;99737.65;1750562;81;21504;-57
2021/10/13 08:56:00;;;;;;;43.65;26.20;;;;;;;9.84;71.68;99734.70;1750440;81;21045;-59
2021/10/13 08:58:28;;;;;;;43.60;28.10;;;;;;;9.85;71.80;99729.62;1750208;81;21508;-58
2021/10/13 09:01:08;;;;;;;40.67;26.73;;;;;;;9.88;71.91;99726.48;1754240;81;21039;-58
2021/10/13 09:03:43;;;;;;;39.27;26.73;;;;;;;9.89;71.93;99728.92;1750566;81;21162;-57
2021/10/13 09:06:27;;;;;;;41.90;26.97;;;;;;;9.90;71.90;99735.12;1750588;81;20991;-57
2021/10/13 09:09:10;;;;;;;42.65;27.30;;;;;;;9.89;71.94;99725.44;1752715;81;20880;-57
2021/10/13 09:11:49;;;;;;;38.35;24.57;;;;;;;9.86;72.04;99729.92;1753165;81;20919;-58
2021/10/13 09:17:57;;;;;;;36.85;25.00;;;;;;;9.80;72.23;99728.97;1751913;81;20935;-57
2021/10/13 09:20:28;;;;;;;38.53;23.83;;;;;;;9.74;72.25;99730.69;1751110;81;20849;-57
2021/10/13 09:23:00;;;;;;;38.95;25.75;;;;;;;9.77;72.59;99726.75;1748419;81;20939;-56
2021/10/13 09:25:27;;;;;;;36.17;24.47;;;;;;;9.81;72.71;99723.92;1745635;81;20923;-57
2021/10/13 09:27:54;;;;;;;38.20;24.57;;;;;;;9.86;72.58;99721.89;1748678;81;21998;-57
2021/10/13 09:30:34;;;;;;;37.20;23.95;;;;;;;9.90;72.52;99721.20;1751058;81;21873;-57
2021/10/13 09:33:16;;;;;;;37.05;23.67;;;;;;;9.94;72.43;99725.59;1751391;81;20916;-58
2021/10/13 09:35:50;;;;;;;39.08;26.00;;;;;;;9.97;72.27;99716.56;1750170;81;20990;-57
2021/10/13 09:38:25;;;;;;;35.00;23.55;;;;;;;9.95;72.12;99711.13;1748114;81;21061;-57
2021/10/13 09:41:00;;;;;;;38.75;24.55;;;;;;;9.87;72.02;99708.27;1747778;81;21537;-58
2021/10/13 09:43:37;;;;;;;33.28;23.00;;;;;;;9.81;72.12;99706.52;1750908;81;21118;-57
2021/10/13 09:46:07;;;;;;;30.70;21.48;;;;;;;9.76;72.23;99707.71;1753227;81;20947;-57
2021/10/13 09:48:37;;;;;;;37.15;23.22;;;;;;;9.71;72.27;99699.03;1749464;81;20947;-58
2021/10/13 09:51:21;;;;;;;33.55;23.30;;;;;;;9.69;72.50;99709.66;1756751;81;21035;-56
2021/10/13 09:53:51;;;;;;;35.05;23.55;;;;;;;9.61;72.51;99709.47;1751081;81;21425;-57
2021/10/13 09:56:35;;;;;;;31.05;22.75;;;;;;;9.57;72.76;99708.29;1751687;81;21159;-57
2021/10/13 09:59:16;;;;;;;33.60;22.95;;;;;;;9.58;72.90;99697.89;1748556;81;20984;-57
2021/10/13 10:01:47;;;;;;;31.90;23.27;;;;;;;9.60;72.80;99699.83;1754656;81;21018;-57
2021/10/13 10:04:17;;;;;;;31.33;21.90;;;;;;;9.60;72.89;99695.28;1754244;81;20952;-57
2021/10/13 10:06:48;;;;;;;29.57;21.97;;;;;;;9.62;73.04;99707.91;1750590;80;21504;-56
2021/10/13 10:09:19;;;;;;;30.00;21.23;;;;;;;9.64;72.94;99700.48;1771953;80;21134;-57
2021/10/13 10:11:47;;;;;;;29.02;20.70;;;;;;;9.61;72.88;99692.08;1770588;80;20947;-56
2021/10/13 10:14:40;;;;;;;35.35;22.32;;;;;;;9.55;72.95;99676.94;1769177;79;20891;-57
2021/10/13 10:17:07;;;;;;;28.20;20.57;;;;;;;9.54;73.15;99684.16;1770320;80;20979;-57
2021/10/13 10:23:29;;;;;;;27.07;20.20;;;;;;;9.52;73.16;99682.22;1768850;80;20966;-55
2021/10/13 10:29:26;;;;;;;25.90;18.15;;;;;;;9.38;73.70;99666.89;1768553;80;21433;-58
2021/10/13 10:35:24;;;;;;;28.00;18.92;;;;;;;9.29;74.09;99674.94;1772633;80;21032;-55
2021/10/13 10:41:23;;;;;;;28.90;18.45;;;;;;;9.24;74.48;99664.89;1768556;80;21006;-56
2021/10/13 10:47:17;;;;;;;34.65;21.17;;;;;;;9.19;74.48;99647.39;1772748;80;20994;-57
2021/10/13 10:49:49;;;;;;;29.02;19.55;;;;;;;9.21;74.83;99644.48;1768991;80;20983;-57
2021/10/13 10:52:24;;;;;;;28.92;20.02;;;;;;;9.27;74.88;99643.58;1767568;80;21794;-56
2021/10/13 10:55:01;;;;;;;31.68;21.27;;;;;;;9.32;74.78;99649.08;1771880;80;20895;-56
2021/10/13 10:57:46;;;;;;;34.58;21.10;;;;;;;9.33;74.71;99649.88;1767340;80;20982;-58
2021/10/13 11:00:27;;;;;;;28.92;21.00;;;;;;;9.31;74.79;99633.26;1743656;80;20903;-57
2021/10/13 11:03:18;;;;;;;31.57;21.65;;;;;;;9.27;74.87;99628.87;1771000;80;21052;-57
2021/10/13 11:05:46;;;;;;;29.82;20.32;;;;;;;9.23;75.08;99635.70;1767696;80;21110;-56
2021/10/13 11:08:13;;;;;;;34.58;21.40;;;;;;;9.22;75.14;99644.27;1768144;80;20990;-56
2021/10/13 11:10:40;;;;;;;31.50;20.25;;;;;;;9.23;75.28;99612.97;1768403;80;20938;-56
2021/10/13 11:13:06;;;;;;;29.35;21.02;;;;;;;9.18;75.40;99619.01;1769555;80;21555;-57
2021/10/13 11:15:36;;;;;;;32.58;21.48;;;;;;;9.19;75.64;99617.97;1770270;80;21468;-56
2021/10/13 11:18:15;;;;;;;28.55;21.33;;;;;;;9.26;75.67;99612.52;1769974;80;21177;-56
2021/10/13 11:20:42;;;;;;;;;;;;;;;9.29;75.58;99618.77;1773515;80;20978;-57
2021/10/13 11:23:11;;;;;;;33.35;21.50;;;;;;;9.29;75.51;99618.77;1777204;79;20498;-56
2021/10/13 11:25:39;;;;;;;33.30;21.20;;;;;;;9.28;75.52;99631.84;1766382;80;20982;-57
2021/10/13 11:28:11;;;;;;;33.73;21.97;;;;;;;9.31;75.56;99630.05;1766160;80;20938;-57
2021/10/13 11:30:44;;;;;;;31.35;22.52;;;;;;;9.35;75.51;99627.22;1768444;80;21823;-57
2021/10/13 11:33:16;;;;;;;31.55;21.45;;;;;;;9.37;75.52;99626.99;1768060;80;21507;-56
2021/10/13 11:35:44;;;;;;;30.68;21.57;;;;;;;9.36;75.61;99626.69;1770765;80;21052;-55
2021/10/13 11:38:20;;;;;;;30.72;21.45;;;;;;;9.37;75.57;99637.16;1773304;80;20990;-57
2021/10/13 11:40:47;;;;;;;30.88;21.27;;;;;;;9.41;75.51;99653.05;1770306;80;20895;-57
2021/10/13 11:43:18;;;;;;;26.95;19.65;;;;;;;9.46;75.47;99655.04;1770215;80;21147;-57
2021/10/13 11:49:15;;;;;;;28.87;20.08;;;;;;;9.54;75.29;99676.64;1767486;80;21640;-59
2021/10/13 11:55:47;;;;;;;25.30;19.10;;;;;;;9.54;75.21;99680.66;1769222;80;21009;-57
2021/10/13 12:01:45;;;;;;;27.37;18.90;;;;;;;9.60;75.14;99682.44;1771735;80;21056;-59
2021/10/13 12:07:30;;;;;;;;;;;;;;;9.59;74.85;99694.17;1772181;80;20942;-56
2021/10/13 12:13:30;;;;;;;27.05;18.73;;;;;;;9.59;75.12;99688.83;1770307;80;20923;-57